sensor_id;sensor_type;location;lat;lon;timestamp;P1;durP1;ratioP1;P2;durP2;ratioP2
45684;SDS011;46836;48.388;16.210;2024-03-22T00:01:54;12.68;;;11.48;;
45684;SDS011;46836;48.388;16.210;2024-03-22T00:04:20;13.68;;;12.38;;
45684;SDS011;46836;48.388;16.210;2024-03-22T00:06:47;13.63;;;12.25;;
45684;SDS011;46836;48.388;16.210;2024-03-22T00:09:15;14.20;;;12.80;;
45684;SDS011;46836;48.388;16.210;2024-03-22T00:11:42;14.00;;;12.65;;
45684;SDS011;46836;48.388;16.210;2024-03-22T00:14:10;14.63;;;13.27;;
45684;SDS011;46836;48.388;16.210;2024-03-22T00:16:37;16.17;;;13.73;;
45684;SDS011;46836;48.388;16.210;2024-03-22T00:19:03;16.13;;;14.52;;
45684;SDS011;46836;48.388;16.210;2024-03-22T00:21:29;16.52;;;14.30;;
45684;SDS011;46836;48.388;16.210;2024-03-22T00:23:56;15.57;;;14.07;;
45684;SDS011;46836;48.388;16.210;2024-03-22T00:26:23;16.10;;;14.50;;
45684;SDS011;46836;48.388;16.210;2024-03-22T00:28:49;15.18;;;13.68;;
45684;SDS011;46836;48.388;16.210;2024-03-22T00:31:16;16.92;;;15.23;;
45684;SDS011;46836;48.388;16.210;2024-03-22T00:33:42;17.90;;;14.65;;
45684;SDS011;46836;48.388;16.210;2024-03-22T00:36:09;18.30;;;15.63;;
45684;SDS011;46836;48.388;16.210;2024-03-22T00:38:35;18.05;;;16.27;;
45684;SDS011;46836;48.388;16.210;2024-03-22T00:41:02;18.00;;;16.27;;
45684;SDS011;46836;48.388;16.210;2024-03-22T00:43:27;19.40;;;17.40;;
45684;SDS011;46836;48.388;16.210;2024-03-22T00:45:54;19.02;;;16.88;;
45684;SDS011;46836;48.388;16.210;2024-03-22T00:48:20;18.38;;;16.58;;
45684;SDS011;46836;48.388;16.210;2024-03-22T00:50:46;18.67;;;16.83;;
45684;SDS011;46836;48.388;16.210;2024-03-22T00:53:12;18.70;;;16.47;;
45684;SDS011;46836;48.388;16.210;2024-03-22T00:55:38;19.92;;;17.90;;
45684;SDS011;46836;48.388;16.210;2024-03-22T00:58:04;19.40;;;17.45;;
45684;SDS011;46836;48.388;16.210;2024-03-22T01:00:30;20.45;;;18.35;;
45684;SDS011;46836;48.388;16.210;2024-03-22T01:02:56;19.55;;;17.55;;
45684;SDS011;46836;48.388;16.210;2024-03-22T01:05:22;21.23;;;16.67;;
45684;SDS011;46836;48.388;16.210;2024-03-22T01:07:48;17.92;;;16.02;;
45684;SDS011;46836;48.388;16.210;2024-03-22T01:10:14;19.23;;;17.33;;
45684;SDS011;46836;48.388;16.210;2024-03-22T01:12:40;19.50;;;17.30;;
45684;SDS011;46836;48.388;16.210;2024-03-22T01:15:06;17.43;;;15.77;;
45684;SDS011;46836;48.388;16.210;2024-03-22T01:17:33;20.35;;;17.55;;
45684;SDS011;46836;48.388;16.210;2024-03-22T01:19:59;17.30;;;15.50;;
45684;SDS011;46836;48.388;16.210;2024-03-22T01:22:25;21.63;;;17.88;;
45684;SDS011;46836;48.388;16.210;2024-03-22T01:24:51;19.25;;;17.15;;
45684;SDS011;46836;48.388;16.210;2024-03-22T01:27:18;19.35;;;17.45;;
45684;SDS011;46836;48.388;16.210;2024-03-22T01:29:45;18.98;;;17.00;;
45684;SDS011;46836;48.388;16.210;2024-03-22T01:32:12;18.90;;;16.90;;
45684;SDS011;46836;48.388;16.210;2024-03-22T01:34:39;19.92;;;17.83;;
45684;SDS011;46836;48.388;16.210;2024-03-22T01:37:05;19.30;;;17.30;;
45684;SDS011;46836;48.388;16.210;2024-03-22T01:39:31;20.60;;;17.08;;
45684;SDS011;46836;48.388;16.210;2024-03-22T01:41:57;19.00;;;17.05;;
45684;SDS011;46836;48.388;16.210;2024-03-22T01:44:27;18.67;;;16.70;;
45684;SDS011;46836;48.388;16.210;2024-03-22T01:46:54;20.83;;;18.55;;
45684;SDS011;46836;48.388;16.210;2024-03-22T01:49:20;18.80;;;16.85;;
45684;SDS011;46836;48.388;16.210;2024-03-22T01:51:47;21.13;;;17.85;;
45684;SDS011;46836;48.388;16.210;2024-03-22T01:54:14;19.02;;;17.10;;
45684;SDS011;46836;48.388;16.210;2024-03-22T01:56:42;18.15;;;16.25;;
45684;SDS011;46836;48.388;16.210;2024-03-22T01:59:09;20.38;;;18.08;;
45684;SDS011;46836;48.388;16.210;2024-03-22T02:01:35;19.05;;;17.00;;
45684;SDS011;46836;48.388;16.210;2024-03-22T02:04:02;19.58;;;17.58;;
45684;SDS011;46836;48.388;16.210;2024-03-22T02:06:28;19.98;;;17.90;;
45684;SDS011;46836;48.388;16.210;2024-03-22T02:08:54;20.20;;;18.13;;
45684;SDS011;46836;48.388;16.210;2024-03-22T02:11:22;18.80;;;16.80;;
45684;SDS011;46836;48.388;16.210;2024-03-22T02:13:48;20.17;;;18.05;;
45684;SDS011;46836;48.388;16.210;2024-03-22T02:16:14;20.33;;;18.00;;
45684;SDS011;46836;48.388;16.210;2024-03-22T02:18:42;21.45;;;19.20;;
45684;SDS011;46836;48.388;16.210;2024-03-22T02:21:09;19.85;;;18.05;;
45684;SDS011;46836;48.388;16.210;2024-03-22T02:23:36;22.25;;;18.92;;
45684;SDS011;46836;48.388;16.210;2024-03-22T02:26:03;21.15;;;19.00;;
45684;SDS011;46836;48.388;16.210;2024-03-22T02:28:31;21.25;;;19.15;;
45684;SDS011;46836;48.388;16.210;2024-03-22T02:30:58;20.95;;;18.95;;
45684;SDS011;46836;48.388;16.210;2024-03-22T02:33:25;21.27;;;18.95;;
45684;SDS011;46836;48.388;16.210;2024-03-22T02:35:51;23.10;;;20.80;;
45684;SDS011;46836;48.388;16.210;2024-03-22T02:38:18;21.42;;;19.17;;
45684;SDS011;46836;48.388;16.210;2024-03-22T02:40:44;21.95;;;19.52;;
45684;SDS011;46836;48.388;16.210;2024-03-22T02:43:11;21.35;;;19.15;;
45684;SDS011;46836;48.388;16.210;2024-03-22T02:45:38;19.77;;;17.67;;
45684;SDS011;46836;48.388;16.210;2024-03-22T02:48:05;20.30;;;18.23;;
45684;SDS011;46836;48.388;16.210;2024-03-22T02:50:35;24.40;;;19.77;;
45684;SDS011;46836;48.388;16.210;2024-03-22T02:53:02;22.17;;;19.15;;
45684;SDS011;46836;48.388;16.210;2024-03-22T02:55:29;22.35;;;20.05;;
45684;SDS011;46836;48.388;16.210;2024-03-22T02:57:56;21.85;;;19.65;;
45684;SDS011;46836;48.388;16.210;2024-03-22T03:00:22;22.30;;;20.00;;
45684;SDS011;46836;48.388;16.210;2024-03-22T03:02:49;23.92;;;18.80;;
45684;SDS011;46836;48.388;16.210;2024-03-22T03:05:15;21.48;;;19.27;;
45684;SDS011;46836;48.388;16.210;2024-03-22T03:07:41;22.83;;;20.30;;
45684;SDS011;46836;48.388;16.210;2024-03-22T03:10:07;23.75;;;21.20;;
45684;SDS011;46836;48.388;16.210;2024-03-22T03:12:33;22.48;;;20.17;;
45684;SDS011;46836;48.388;16.210;2024-03-22T03:14:59;22.43;;;20.03;;
45684;SDS011;46836;48.388;16.210;2024-03-22T03:17:25;22.63;;;20.23;;
45684;SDS011;46836;48.388;16.210;2024-03-22T03:19:51;22.90;;;20.08;;
45684;SDS011;46836;48.388;16.210;2024-03-22T03:22:17;26.03;;;22.40;;
45684;SDS011;46836;48.388;16.210;2024-03-22T03:24:43;23.08;;;20.65;;
45684;SDS011;46836;48.388;16.210;2024-03-22T03:27:09;24.20;;;21.55;;
45684;SDS011;46836;48.388;16.210;2024-03-22T03:29:36;23.67;;;21.20;;
45684;SDS011;46836;48.388;16.210;2024-03-22T03:32:02;23.45;;;20.95;;
45684;SDS011;46836;48.388;16.210;2024-03-22T03:34:28;25.35;;;21.60;;
45684;SDS011;46836;48.388;16.210;2024-03-22T03:36:54;23.17;;;20.40;;
45684;SDS011;46836;48.388;16.210;2024-03-22T03:39:20;22.30;;;19.90;;
45684;SDS011;46836;48.388;16.210;2024-03-22T03:41:46;23.05;;;20.20;;
45684;SDS011;46836;48.388;16.210;2024-03-22T03:44:12;23.00;;;20.10;;
45684;SDS011;46836;48.388;16.210;2024-03-22T03:46:38;23.48;;;19.75;;
45684;SDS011;46836;48.388;16.210;2024-03-22T03:49:04;22.40;;;20.00;;
45684;SDS011;46836;48.388;16.210;2024-03-22T03:51:30;22.50;;;19.77;;
45684;SDS011;46836;48.388;16.210;2024-03-22T03:53:56;23.30;;;20.83;;
45684;SDS011;46836;48.388;16.210;2024-03-22T03:56:22;21.77;;;19.47;;
45684;SDS011;46836;48.388;16.210;2024-03-22T03:58:48;21.38;;;19.17;;
45684;SDS011;46836;48.388;16.210;2024-03-22T04:01:14;23.70;;;20.58;;
45684;SDS011;46836;48.388;16.210;2024-03-22T04:03:40;21.50;;;18.92;;
45684;SDS011;46836;48.388;16.210;2024-03-22T04:06:06;24.37;;;20.10;;
45684;SDS011;46836;48.388;16.210;2024-03-22T04:08:32;22.27;;;19.83;;
45684;SDS011;46836;48.388;16.210;2024-03-22T04:10:59;22.73;;;20.48;;
45684;SDS011;46836;48.388;16.210;2024-03-22T04:13:25;23.10;;;19.90;;
45684;SDS011;46836;48.388;16.210;2024-03-22T04:15:52;23.48;;;20.77;;
45684;SDS011;46836;48.388;16.210;2024-03-22T04:18:19;24.10;;;21.35;;
45684;SDS011;46836;48.388;16.210;2024-03-22T04:20:55;24.45;;;21.02;;
45684;SDS011;46836;48.388;16.210;2024-03-22T04:23:22;24.33;;;20.48;;
45684;SDS011;46836;48.388;16.210;2024-03-22T04:28:22;26.63;;;22.42;;
45684;SDS011;46836;48.388;16.210;2024-03-22T04:33:34;26.10;;;23.30;;
45684;SDS011;46836;48.388;16.210;2024-03-22T04:36:01;25.58;;;22.08;;
45684;SDS011;46836;48.388;16.210;2024-03-22T04:38:28;26.90;;;23.95;;
45684;SDS011;46836;48.388;16.210;2024-03-22T04:40:55;26.05;;;21.73;;
45684;SDS011;46836;48.388;16.210;2024-03-22T04:43:25;26.70;;;22.33;;
45684;SDS011;46836;48.388;16.210;2024-03-22T04:45:51;27.23;;;23.05;;
45684;SDS011;46836;48.388;16.210;2024-03-22T04:48:18;25.50;;;21.65;;
45684;SDS011;46836;48.388;16.210;2024-03-22T04:50:46;27.02;;;23.52;;
45684;SDS011;46836;48.388;16.210;2024-03-22T04:53:21;26.95;;;22.10;;
45684;SDS011;46836;48.388;16.210;2024-03-22T04:55:47;26.25;;;22.17;;
45684;SDS011;46836;48.388;16.210;2024-03-22T04:58:14;25.77;;;21.92;;
45684;SDS011;46836;48.388;16.210;2024-03-22T05:00:42;27.95;;;22.85;;
45684;SDS011;46836;48.388;16.210;2024-03-22T05:03:09;27.08;;;22.42;;
45684;SDS011;46836;48.388;16.210;2024-03-22T05:05:36;26.30;;;22.58;;
45684;SDS011;46836;48.388;16.210;2024-03-22T05:08:02;28.77;;;23.45;;
45684;SDS011;46836;48.388;16.210;2024-03-22T05:10:29;29.58;;;23.13;;
45684;SDS011;46836;48.388;16.210;2024-03-22T05:12:55;27.17;;;22.83;;
45684;SDS011;46836;48.388;16.210;2024-03-22T05:15:22;26.90;;;21.70;;
45684;SDS011;46836;48.388;16.210;2024-03-22T05:17:49;27.98;;;22.35;;
45684;SDS011;46836;48.388;16.210;2024-03-22T05:20:15;26.27;;;22.10;;
45684;SDS011;46836;48.388;16.210;2024-03-22T05:22:41;27.52;;;22.45;;
45684;SDS011;46836;48.388;16.210;2024-03-22T05:25:08;28.48;;;23.48;;
45684;SDS011;46836;48.388;16.210;2024-03-22T05:27:35;26.40;;;22.60;;
45684;SDS011;46836;48.388;16.210;2024-03-22T05:30:02;26.33;;;22.60;;
45684;SDS011;46836;48.388;16.210;2024-03-22T05:32:32;28.00;;;22.88;;
45684;SDS011;46836;48.388;16.210;2024-03-22T05:34:58;26.40;;;22.47;;
45684;SDS011;46836;48.388;16.210;2024-03-22T05:37:24;27.07;;;21.87;;
45684;SDS011;46836;48.388;16.210;2024-03-22T05:39:50;27.75;;;21.08;;
45684;SDS011;46836;48.388;16.210;2024-03-22T05:42:16;26.75;;;21.92;;
45684;SDS011;46836;48.388;16.210;2024-03-22T05:44:43;26.48;;;21.95;;
45684;SDS011;46836;48.388;16.210;2024-03-22T05:47:10;28.73;;;23.70;;
45684;SDS011;46836;48.388;16.210;2024-03-22T05:49:36;30.02;;;23.98;;
45684;SDS011;46836;48.388;16.210;2024-03-22T05:52:02;28.57;;;22.30;;
45684;SDS011;46836;48.388;16.210;2024-03-22T05:54:28;27.73;;;22.95;;
45684;SDS011;46836;48.388;16.210;2024-03-22T05:56:55;30.73;;;23.20;;
45684;SDS011;46836;48.388;16.210;2024-03-22T05:59:21;34.65;;;21.88;;
45684;SDS011;46836;48.388;16.210;2024-03-22T06:01:47;26.77;;;20.92;;
45684;SDS011;46836;48.388;16.210;2024-03-22T06:04:13;25.15;;;20.90;;
45684;SDS011;46836;48.388;16.210;2024-03-22T06:06:39;30.10;;;22.23;;
45684;SDS011;46836;48.388;16.210;2024-03-22T06:09:05;27.60;;;22.77;;
45684;SDS011;46836;48.388;16.210;2024-03-22T06:11:36;30.45;;;22.20;;
45684;SDS011;46836;48.388;16.210;2024-03-22T06:14:02;27.67;;;22.05;;
45684;SDS011;46836;48.388;16.210;2024-03-22T06:16:29;28.92;;;23.65;;
45684;SDS011;46836;48.388;16.210;2024-03-22T06:18:55;28.20;;;22.10;;
45684;SDS011;46836;48.388;16.210;2024-03-22T06:21:21;26.10;;;22.10;;
45684;SDS011;46836;48.388;16.210;2024-03-22T06:23:50;24.77;;;21.13;;
45684;SDS011;46836;48.388;16.210;2024-03-22T06:26:17;28.48;;;22.05;;
45684;SDS011;46836;48.388;16.210;2024-03-22T06:28:43;27.13;;;22.70;;
45684;SDS011;46836;48.388;16.210;2024-03-22T06:31:10;27.05;;;22.08;;
45684;SDS011;46836;48.388;16.210;2024-03-22T06:33:36;26.15;;;21.55;;
45684;SDS011;46836;48.388;16.210;2024-03-22T06:36:02;28.35;;;21.98;;
45684;SDS011;46836;48.388;16.210;2024-03-22T06:38:29;27.65;;;22.45;;
45684;SDS011;46836;48.388;16.210;2024-03-22T06:40:55;27.10;;;22.05;;
45684;SDS011;46836;48.388;16.210;2024-03-22T06:43:21;24.90;;;20.92;;
45684;SDS011;46836;48.388;16.210;2024-03-22T06:45:47;23.83;;;20.17;;
45684;SDS011;46836;48.388;16.210;2024-03-22T06:48:14;30.02;;;22.80;;
45684;SDS011;46836;48.388;16.210;2024-03-22T06:50:41;26.08;;;22.10;;
45684;SDS011;46836;48.388;16.210;2024-03-22T06:53:07;27.20;;;22.15;;
45684;SDS011;46836;48.388;16.210;2024-03-22T06:55:35;28.02;;;22.35;;
45684;SDS011;46836;48.388;16.210;2024-03-22T06:58:01;26.75;;;21.85;;
45684;SDS011;46836;48.388;16.210;2024-03-22T07:00:27;29.02;;;22.95;;
45684;SDS011;46836;48.388;16.210;2024-03-22T07:02:53;27.90;;;23.17;;
45684;SDS011;46836;48.388;16.210;2024-03-22T07:05:21;26.60;;;22.77;;
45684;SDS011;46836;48.388;16.210;2024-03-22T07:07:47;25.80;;;21.02;;
45684;SDS011;46836;48.388;16.210;2024-03-22T07:10:15;28.65;;;22.90;;
45684;SDS011;46836;48.388;16.210;2024-03-22T07:12:41;31.17;;;22.63;;
45684;SDS011;46836;48.388;16.210;2024-03-22T07:15:07;26.25;;;21.95;;
45684;SDS011;46836;48.388;16.210;2024-03-22T07:17:34;27.73;;;21.77;;
45684;SDS011;46836;48.388;16.210;2024-03-22T07:20:00;25.77;;;21.52;;
45684;SDS011;46836;48.388;16.210;2024-03-22T07:22:27;30.40;;;22.77;;
45684;SDS011;46836;48.388;16.210;2024-03-22T07:24:53;25.00;;;20.42;;
45684;SDS011;46836;48.388;16.210;2024-03-22T07:27:20;24.05;;;20.65;;
45684;SDS011;46836;48.388;16.210;2024-03-22T07:29:46;28.10;;;22.83;;
45684;SDS011;46836;48.388;16.210;2024-03-22T07:32:12;27.00;;;21.58;;
45684;SDS011;46836;48.388;16.210;2024-03-22T07:34:38;27.80;;;22.45;;
45684;SDS011;46836;48.388;16.210;2024-03-22T07:37:04;27.60;;;21.83;;
45684;SDS011;46836;48.388;16.210;2024-03-22T07:39:30;28.40;;;23.77;;
45684;SDS011;46836;48.388;16.210;2024-03-22T07:41:56;28.80;;;23.77;;
45684;SDS011;46836;48.388;16.210;2024-03-22T07:44:22;27.50;;;21.27;;
45684;SDS011;46836;48.388;16.210;2024-03-22T07:46:54;29.30;;;23.45;;
45684;SDS011;46836;48.388;16.210;2024-03-22T07:49:20;29.58;;;23.45;;
45684;SDS011;46836;48.388;16.210;2024-03-22T07:51:46;30.50;;;24.95;;
45684;SDS011;46836;48.388;16.210;2024-03-22T07:54:12;31.45;;;23.33;;
45684;SDS011;46836;48.388;16.210;2024-03-22T07:56:38;30.20;;;24.60;;
45684;SDS011;46836;48.388;16.210;2024-03-22T07:59:05;27.30;;;23.30;;
45684;SDS011;46836;48.388;16.210;2024-03-22T08:01:31;28.40;;;24.05;;
45684;SDS011;46836;48.388;16.210;2024-03-22T08:03:57;33.28;;;25.05;;
45684;SDS011;46836;48.388;16.210;2024-03-22T08:06:23;32.45;;;25.17;;
45684;SDS011;46836;48.388;16.210;2024-03-22T08:08:49;32.20;;;24.92;;
45684;SDS011;46836;48.388;16.210;2024-03-22T08:11:15;31.33;;;25.00;;
45684;SDS011;46836;48.388;16.210;2024-03-22T08:13:41;29.73;;;24.30;;
45684;SDS011;46836;48.388;16.210;2024-03-22T08:16:07;31.97;;;24.03;;
45684;SDS011;46836;48.388;16.210;2024-03-22T08:18:33;35.43;;;25.53;;
45684;SDS011;46836;48.388;16.210;2024-03-22T08:20:59;28.05;;;21.98;;
45684;SDS011;46836;48.388;16.210;2024-03-22T08:23:27;33.08;;;24.83;;
45684;SDS011;46836;48.388;16.210;2024-03-22T08:25:53;34.03;;;25.20;;
45684;SDS011;46836;48.388;16.210;2024-03-22T08:28:19;33.95;;;24.92;;
45684;SDS011;46836;48.388;16.210;2024-03-22T08:30:45;30.40;;;24.50;;
45684;SDS011;46836;48.388;16.210;2024-03-22T08:33:11;34.83;;;25.05;;
45684;SDS011;46836;48.388;16.210;2024-03-22T08:35:38;31.73;;;24.88;;
45684;SDS011;46836;48.388;16.210;2024-03-22T08:38:04;35.58;;;26.75;;
45684;SDS011;46836;48.388;16.210;2024-03-22T08:40:38;33.28;;;25.15;;
45684;SDS011;46836;48.388;16.210;2024-03-22T08:43:07;33.00;;;26.48;;
45684;SDS011;46836;48.388;16.210;2024-03-22T08:45:34;38.25;;;25.85;;
45684;SDS011;46836;48.388;16.210;2024-03-22T08:48:01;33.40;;;25.50;;
45684;SDS011;46836;48.388;16.210;2024-03-22T08:50:27;33.50;;;26.90;;
45684;SDS011;46836;48.388;16.210;2024-03-22T08:52:53;33.42;;;26.75;;
45684;SDS011;46836;48.388;16.210;2024-03-22T08:55:19;34.65;;;25.83;;
45684;SDS011;46836;48.388;16.210;2024-03-22T08:57:45;34.00;;;26.40;;
45684;SDS011;46836;48.388;16.210;2024-03-22T09:00:11;32.45;;;25.00;;
45684;SDS011;46836;48.388;16.210;2024-03-22T09:02:38;39.15;;;25.98;;
45684;SDS011;46836;48.388;16.210;2024-03-22T09:05:04;34.60;;;24.70;;
45684;SDS011;46836;48.388;16.210;2024-03-22T09:07:31;28.98;;;23.55;;
45684;SDS011;46836;48.388;16.210;2024-03-22T09:09:57;36.17;;;24.25;;
45684;SDS011;46836;48.388;16.210;2024-03-22T09:12:23;32.22;;;24.40;;
45684;SDS011;46836;48.388;16.210;2024-03-22T09:14:49;32.10;;;25.42;;
45684;SDS011;46836;48.388;16.210;2024-03-22T09:17:15;33.90;;;24.30;;
45684;SDS011;46836;48.388;16.210;2024-03-22T09:19:41;29.30;;;23.70;;
45684;SDS011;46836;48.388;16.210;2024-03-22T09:22:07;31.30;;;24.13;;
45684;SDS011;46836;48.388;16.210;2024-03-22T09:24:33;29.02;;;22.40;;
45684;SDS011;46836;48.388;16.210;2024-03-22T09:26:59;29.65;;;23.20;;
45684;SDS011;46836;48.388;16.210;2024-03-22T09:29:25;31.10;;;24.02;;
45684;SDS011;46836;48.388;16.210;2024-03-22T09:31:51;31.50;;;23.40;;
45684;SDS011;46836;48.388;16.210;2024-03-22T09:34:17;28.40;;;23.20;;
45684;SDS011;46836;48.388;16.210;2024-03-22T09:36:45;26.23;;;21.95;;
45684;SDS011;46836;48.388;16.210;2024-03-22T09:39:11;25.57;;;21.30;;
45684;SDS011;46836;48.388;16.210;2024-03-22T09:41:40;26.15;;;22.05;;
45684;SDS011;46836;48.388;16.210;2024-03-22T09:44:12;22.55;;;19.83;;
45684;SDS011;46836;48.388;16.210;2024-03-22T09:46:42;22.67;;;18.70;;
45684;SDS011;46836;48.388;16.210;2024-03-22T09:49:09;23.95;;;20.00;;
45684;SDS011;46836;48.388;16.210;2024-03-22T09:51:39;25.40;;;19.23;;
45684;SDS011;46836;48.388;16.210;2024-03-22T09:54:07;24.08;;;19.17;;
45684;SDS011;46836;48.388;16.210;2024-03-22T09:56:39;21.10;;;18.25;;
45684;SDS011;46836;48.388;16.210;2024-03-22T09:59:06;20.77;;;17.05;;
45684;SDS011;46836;48.388;16.210;2024-03-22T10:01:33;22.33;;;16.50;;
45684;SDS011;46836;48.388;16.210;2024-03-22T10:04:03;20.15;;;14.13;;
45684;SDS011;46836;48.388;16.210;2024-03-22T10:06:29;13.30;;;9.60;;
45684;SDS011;46836;48.388;16.210;2024-03-22T10:09:00;9.15;;;7.28;;
45684;SDS011;46836;48.388;16.210;2024-03-22T10:11:27;7.45;;;6.47;;
45684;SDS011;46836;48.388;16.210;2024-03-22T10:13:53;8.15;;;6.97;;
45684;SDS011;46836;48.388;16.210;2024-03-22T10:16:21;10.95;;;8.20;;
45684;SDS011;46836;48.388;16.210;2024-03-22T10:18:47;11.10;;;7.60;;
45684;SDS011;46836;48.388;16.210;2024-03-22T10:21:16;7.93;;;6.65;;
45684;SDS011;46836;48.388;16.210;2024-03-22T10:23:44;9.38;;;7.53;;
45684;SDS011;46836;48.388;16.210;2024-03-22T10:26:12;12.05;;;7.80;;
45684;SDS011;46836;48.388;16.210;2024-03-22T10:28:45;11.20;;;8.32;;
45684;SDS011;46836;48.388;16.210;2024-03-22T10:31:12;14.00;;;9.02;;
45684;SDS011;46836;48.388;16.210;2024-03-22T10:33:42;15.95;;;9.60;;
45684;SDS011;46836;48.388;16.210;2024-03-22T10:36:10;12.40;;;10.90;;
45684;SDS011;46836;48.388;16.210;2024-03-22T10:38:39;12.30;;;9.70;;
45684;SDS011;46836;48.388;16.210;2024-03-22T10:41:06;13.98;;;10.20;;
45684;SDS011;46836;48.388;16.210;2024-03-22T10:43:32;11.98;;;10.63;;
45684;SDS011;46836;48.388;16.210;2024-03-22T10:46:01;13.07;;;10.70;;
45684;SDS011;46836;48.388;16.210;2024-03-22T10:48:31;13.88;;;12.13;;
45684;SDS011;46836;48.388;16.210;2024-03-22T10:50:59;15.77;;;11.90;;
45684;SDS011;46836;48.388;16.210;2024-03-22T10:53:26;13.65;;;11.70;;
45684;SDS011;46836;48.388;16.210;2024-03-22T10:55:57;15.05;;;12.23;;
45684;SDS011;46836;48.388;16.210;2024-03-22T10:58:25;15.23;;;12.50;;
45684;SDS011;46836;48.388;16.210;2024-03-22T11:00:51;15.40;;;13.52;;
45684;SDS011;46836;48.388;16.210;2024-03-22T11:03:19;16.45;;;13.40;;
45684;SDS011;46836;48.388;16.210;2024-03-22T11:05:46;14.55;;;13.00;;
45684;SDS011;46836;48.388;16.210;2024-03-22T11:08:22;19.10;;;15.18;;
45684;SDS011;46836;48.388;16.210;2024-03-22T11:10:53;15.63;;;13.40;;
45684;SDS011;46836;48.388;16.210;2024-03-22T11:13:21;17.80;;;14.63;;
45684;SDS011;46836;48.388;16.210;2024-03-22T11:15:48;16.70;;;13.50;;
45684;SDS011;46836;48.388;16.210;2024-03-22T11:18:15;15.32;;;12.32;;
45684;SDS011;46836;48.388;16.210;2024-03-22T11:20:42;14.80;;;12.88;;
45684;SDS011;46836;48.388;16.210;2024-03-22T11:23:08;16.90;;;13.25;;
45684;SDS011;46836;48.388;16.210;2024-03-22T11:25:34;14.87;;;13.07;;
45684;SDS011;46836;48.388;16.210;2024-03-22T11:28:01;13.67;;;11.30;;
45684;SDS011;46836;48.388;16.210;2024-03-22T11:30:28;14.87;;;12.37;;
45684;SDS011;46836;48.388;16.210;2024-03-22T11:32:55;14.57;;;11.87;;
45684;SDS011;46836;48.388;16.210;2024-03-22T11:35:21;15.73;;;12.43;;
45684;SDS011;46836;48.388;16.210;2024-03-22T11:37:49;14.47;;;10.87;;
45684;SDS011;46836;48.388;16.210;2024-03-22T11:40:16;15.70;;;12.87;;
45684;SDS011;46836;48.388;16.210;2024-03-22T11:42:46;13.17;;;11.77;;
45684;SDS011;46836;48.388;16.210;2024-03-22T11:45:15;11.80;;;10.37;;
45684;SDS011;46836;48.388;16.210;2024-03-22T11:47:43;12.80;;;10.80;;
45684;SDS011;46836;48.388;16.210;2024-03-22T11:50:14;11.80;;;10.60;;
45684;SDS011;46836;48.388;16.210;2024-03-22T11:52:44;13.50;;;11.00;;
45684;SDS011;46836;48.388;16.210;2024-03-22T11:55:12;11.97;;;10.00;;
45684;SDS011;46836;48.388;16.210;2024-03-22T11:57:39;16.60;;;10.80;;
45684;SDS011;46836;48.388;16.210;2024-03-22T12:00:06;14.20;;;11.17;;
45684;SDS011;46836;48.388;16.210;2024-03-22T12:02:38;11.57;;;10.37;;
45684;SDS011;46836;48.388;16.210;2024-03-22T12:05:04;19.83;;;11.20;;
45684;SDS011;46836;48.388;16.210;2024-03-22T12:07:31;14.93;;;10.80;;
45684;SDS011;46836;48.388;16.210;2024-03-22T12:09:58;11.13;;;9.93;;
45684;SDS011;46836;48.388;16.210;2024-03-22T12:12:24;13.30;;;10.90;;
45684;SDS011;46836;48.388;16.210;2024-03-22T12:14:51;16.90;;;10.77;;
45684;SDS011;46836;48.388;16.210;2024-03-22T12:17:17;13.07;;;9.63;;
45684;SDS011;46836;48.388;16.210;2024-03-22T12:19:43;14.17;;;9.67;;
45684;SDS011;46836;48.388;16.210;2024-03-22T12:22:09;10.90;;;8.17;;
45684;SDS011;46836;48.388;16.210;2024-03-22T12:24:36;13.37;;;8.93;;
45684;SDS011;46836;48.388;16.210;2024-03-22T12:27:02;16.10;;;9.63;;
45684;SDS011;46836;48.388;16.210;2024-03-22T12:29:28;12.83;;;10.13;;
45684;SDS011;46836;48.388;16.210;2024-03-22T12:31:57;14.80;;;10.43;;
45684;SDS011;46836;48.388;16.210;2024-03-22T12:34:23;12.73;;;9.40;;
45684;SDS011;46836;48.388;16.210;2024-03-22T12:36:49;11.67;;;9.43;;
45684;SDS011;46836;48.388;16.210;2024-03-22T12:39:15;14.40;;;9.50;;
45684;SDS011;46836;48.388;16.210;2024-03-22T12:41:42;13.30;;;8.43;;
45684;SDS011;46836;48.388;16.210;2024-03-22T12:44:08;9.87;;;8.87;;
45684;SDS011;46836;48.388;16.210;2024-03-22T12:46:34;10.17;;;8.70;;
45684;SDS011;46836;48.388;16.210;2024-03-22T12:49:00;11.00;;;8.70;;
45684;SDS011;46836;48.388;16.210;2024-03-22T12:51:26;10.73;;;9.57;;
45684;SDS011;46836;48.388;16.210;2024-03-22T12:53:52;12.97;;;9.63;;
45684;SDS011;46836;48.388;16.210;2024-03-22T12:56:18;11.10;;;8.50;;
45684;SDS011;46836;48.388;16.210;2024-03-22T12:58:44;9.30;;;7.90;;
45684;SDS011;46836;48.388;16.210;2024-03-22T13:01:10;10.07;;;7.77;;
45684;SDS011;46836;48.388;16.210;2024-03-22T13:03:36;9.97;;;8.10;;
45684;SDS011;46836;48.388;16.210;2024-03-22T13:06:05;12.60;;;8.70;;
45684;SDS011;46836;48.388;16.210;2024-03-22T13:08:31;13.27;;;8.50;;
45684;SDS011;46836;48.388;16.210;2024-03-22T13:10:58;10.20;;;8.80;;
45684;SDS011;46836;48.388;16.210;2024-03-22T13:13:24;11.43;;;8.20;;
45684;SDS011;46836;48.388;16.210;2024-03-22T13:15:50;9.17;;;8.27;;
45684;SDS011;46836;48.388;16.210;2024-03-22T13:18:16;13.33;;;8.90;;
45684;SDS011;46836;48.388;16.210;2024-03-22T13:20:42;8.67;;;7.77;;
45684;SDS011;46836;48.388;16.210;2024-03-22T13:23:08;8.00;;;7.10;;
45684;SDS011;46836;48.388;16.210;2024-03-22T13:25:34;7.80;;;6.77;;
45684;SDS011;46836;48.388;16.210;2024-03-22T13:28:04;9.20;;;7.70;;
45684;SDS011;46836;48.388;16.210;2024-03-22T13:30:31;7.40;;;6.70;;
45684;SDS011;46836;48.388;16.210;2024-03-22T13:32:57;8.10;;;6.97;;
45684;SDS011;46836;48.388;16.210;2024-03-22T13:35:24;10.27;;;8.60;;
45684;SDS011;46836;48.388;16.210;2024-03-22T13:37:50;10.63;;;7.77;;
45684;SDS011;46836;48.388;16.210;2024-03-22T13:40:16;8.70;;;7.33;;
45684;SDS011;46836;48.388;16.210;2024-03-22T13:42:42;8.53;;;6.90;;
45684;SDS011;46836;48.388;16.210;2024-03-22T13:45:08;11.30;;;8.30;;
45684;SDS011;46836;48.388;16.210;2024-03-22T13:47:34;10.47;;;8.40;;
45684;SDS011;46836;48.388;16.210;2024-03-22T13:50:04;7.33;;;6.30;;
45684;SDS011;46836;48.388;16.210;2024-03-22T13:52:31;8.23;;;7.20;;
45684;SDS011;46836;48.388;16.210;2024-03-22T13:54:56;9.03;;;7.10;;
45684;SDS011;46836;48.388;16.210;2024-03-22T13:57:25;8.07;;;6.70;;
45684;SDS011;46836;48.388;16.210;2024-03-22T13:59:51;8.63;;;7.40;;
45684;SDS011;46836;48.388;16.210;2024-03-22T14:02:17;10.17;;;6.73;;
45684;SDS011;46836;48.388;16.210;2024-03-22T14:04:44;8.10;;;5.73;;
45684;SDS011;46836;48.388;16.210;2024-03-22T14:07:10;8.53;;;7.37;;
45684;SDS011;46836;48.388;16.210;2024-03-22T14:09:36;14.00;;;7.00;;
45684;SDS011;46836;48.388;16.210;2024-03-22T14:12:02;9.87;;;6.50;;
45684;SDS011;46836;48.388;16.210;2024-03-22T14:14:28;11.60;;;6.93;;